createdAt,value
2019-03-28T00:00:56.820Z,94.00
2019-03-28T00:03:26.057Z,94.10
2019-03-28T00:05:55.332Z,94.20
2019-03-28T00:08:24.552Z,94.20
2019-03-28T00:10:53.772Z,94.00
2019-03-28T00:13:23.027Z,93.80
2019-03-28T00:15:52.334Z,93.80
2019-03-28T00:18:21.556Z,93.70
2019-03-28T00:20:50.783Z,93.70
2019-03-28T00:23:21.653Z,93.90
2019-03-28T00:25:50.886Z,93.80
2019-03-28T00:28:20.106Z,93.80
2019-03-28T00:30:49.356Z,93.80
2019-03-28T00:33:18.629Z,94.10
2019-03-28T00:35:47.876Z,93.70
2019-03-28T00:38:17.103Z,93.70
2019-03-28T00:40:46.316Z,93.80
2019-03-28T00:43:15.546Z,93.90
2019-03-28T00:45:44.783Z,94.10
2019-03-28T00:48:14.013Z,94.40
2019-03-28T00:50:43.303Z,94.60
2019-03-28T00:53:12.537Z,94.80
2019-03-28T00:55:41.752Z,95.10
2019-03-28T00:58:11.023Z,95.40
2019-03-28T01:00:40.356Z,95.50
2019-03-28T01:03:09.627Z,95.60
2019-03-28T01:05:38.910Z,95.60
2019-03-28T01:08:08.176Z,95.60
2019-03-28T01:10:37.407Z,95.70
2019-03-28T01:13:06.666Z,95.80
2019-03-28T01:15:36.560Z,95.80
2019-03-28T01:18:25.143Z,95.70
2019-03-28T01:20:54.372Z,95.70
2019-03-28T01:23:23.633Z,95.70
2019-03-28T01:25:53.277Z,95.80
2019-03-28T01:28:22.775Z,96.20
2019-03-28T01:30:52.082Z,96.40
2019-03-28T01:33:21.316Z,96.60
2019-03-28T01:35:50.556Z,96.90
2019-03-28T01:38:20.208Z,97.20
2019-03-28T01:40:49.584Z,97.50
2019-03-28T01:43:18.823Z,97.90
2019-03-28T01:45:48.038Z,98.20
2019-03-28T01:48:17.272Z,98.50
2019-03-28T01:50:46.623Z,99.00
2019-03-28T01:53:15.868Z,99.20
2019-03-28T01:55:45.119Z,99.50
2019-03-28T01:58:14.396Z,99.80
2019-03-28T02:00:43.627Z,99.90
2019-03-28T02:03:12.860Z,99.90
2019-03-28T02:05:42.111Z,99.90
2019-03-28T02:08:11.447Z,99.90
2019-03-28T02:10:40.662Z,99.90
2019-03-28T02:13:09.903Z,99.90
2019-03-28T02:15:39.123Z,99.90
2019-03-28T02:18:08.367Z,99.90
2019-03-28T02:20:37.595Z,99.90
2019-03-28T02:23:06.890Z,99.90
2019-03-28T02:25:36.105Z,99.90
2019-03-28T02:28:05.325Z,99.90
2019-03-28T02:30:34.898Z,99.90
2019-03-28T02:33:04.282Z,99.90
2019-03-28T02:35:33.686Z,99.90
2019-03-28T02:38:03.028Z,99.90
2019-03-28T02:40:32.346Z,99.90
2019-03-28T02:43:01.649Z,99.90
2019-03-28T02:45:30.961Z,99.90
2019-03-28T02:48:00.189Z,99.90
2019-03-28T02:50:29.421Z,99.90
2019-03-28T02:52:58.664Z,99.90
2019-03-28T02:55:27.931Z,99.90
2019-03-28T02:57:57.264Z,99.90
2019-03-28T03:00:26.498Z,99.90
2019-03-28T03:02:55.751Z,99.90
2019-03-28T03:05:24.969Z,99.90
2019-03-28T03:07:54.214Z,99.90
2019-03-28T03:10:23.497Z,99.70
2019-03-28T03:12:53.679Z,99.70
2019-03-28T03:15:23.247Z,99.60
2019-03-28T03:17:52.489Z,99.50
2019-03-28T03:20:21.710Z,99.50
2019-03-28T03:22:50.938Z,99.50
2019-03-28T03:25:20.185Z,99.40
2019-03-28T03:27:57.538Z,99.20
2019-03-28T03:30:21.686Z,99.20
2019-03-28T03:32:50.920Z,99.10
2019-03-28T03:35:20.159Z,99.10
2019-03-28T03:37:49.370Z,99.10
2019-03-28T03:40:18.766Z,99.30
2019-03-28T03:42:48.052Z,99.30
2019-03-28T03:45:17.269Z,99.40
2019-03-28T03:47:46.502Z,99.40
2019-03-28T03:50:18.801Z,99.40
2019-03-28T03:52:48.024Z,99.50
2019-03-28T03:55:17.263Z,99.50
2019-03-28T03:57:47.540Z,99.50
2019-03-28T04:00:19.898Z,99.50
2019-03-28T04:02:49.111Z,99.60
2019-03-28T04:05:18.328Z,99.50
2019-03-28T04:07:47.586Z,99.50
2019-03-28T04:10:16.888Z,99.70
2019-03-28T04:12:46.450Z,99.70
2019-03-28T04:15:15.827Z,99.70
2019-03-28T04:17:45.061Z,99.70
2019-03-28T04:20:14.328Z,99.70
2019-03-28T04:22:43.574Z,99.70
2019-03-28T04:25:13.660Z,99.70
2019-03-28T04:27:43.014Z,99.80
2019-03-28T04:30:12.556Z,99.90
2019-03-28T04:32:41.803Z,99.90
2019-03-28T04:35:11.150Z,99.90
2019-03-28T04:37:40.369Z,99.90
2019-03-28T04:40:09.743Z,99.90
2019-03-28T04:42:38.967Z,99.80
2019-03-28T04:45:08.725Z,99.70
2019-03-28T04:47:38.041Z,99.90
2019-03-28T04:50:08.006Z,99.90
2019-03-28T04:52:37.325Z,99.90
2019-03-28T04:55:07.303Z,99.90
2019-03-28T04:57:36.597Z,99.90
2019-03-28T05:00:07.639Z,99.90
2019-03-28T05:02:36.894Z,99.90
2019-03-28T05:05:07.828Z,99.90
2019-03-28T05:07:37.115Z,99.90
2019-03-28T05:10:08.871Z,99.90
2019-03-28T05:12:38.096Z,99.90
2019-03-28T05:15:10.560Z,99.90
2019-03-28T05:17:40.384Z,99.90
2019-03-28T05:20:13.150Z,99.90
2019-03-28T05:22:41.376Z,99.90
2019-03-28T05:25:10.804Z,99.90
2019-03-28T05:27:41.977Z,99.90
2019-03-28T05:30:11.245Z,99.90
2019-03-28T05:32:40.459Z,99.90
2019-03-28T05:35:09.944Z,99.90
2019-03-28T05:37:39.551Z,99.90
2019-03-28T05:40:09.322Z,99.90
2019-03-28T05:42:38.555Z,99.90
2019-03-28T05:45:08.211Z,99.90
2019-03-28T05:47:37.528Z,99.90
2019-03-28T05:50:10.145Z,99.90
2019-03-28T05:52:39.368Z,99.90
2019-03-28T05:55:08.763Z,99.90
2019-03-28T05:57:38.036Z,99.80
2019-03-28T06:00:08.494Z,99.60
2019-03-28T06:02:37.728Z,99.50
2019-03-28T06:05:07.900Z,99.50
2019-03-28T06:07:37.158Z,99.60
2019-03-28T06:10:07.811Z,99.50
2019-03-28T06:12:37.185Z,99.30
2019-03-28T06:15:08.349Z,99.30
2019-03-28T06:17:37.580Z,99.30
2019-03-28T06:20:08.202Z,99.20
2019-03-28T06:22:37.511Z,98.90
2019-03-28T06:25:06.759Z,98.80
2019-03-28T06:27:36.269Z,98.90
2019-03-28T06:30:09.216Z,98.80
2019-03-28T06:32:43.172Z,98.70
2019-03-28T06:35:10.324Z,98.80
2019-03-28T06:37:39.634Z,98.70
2019-03-28T06:40:09.293Z,98.70
2019-03-28T06:42:38.592Z,98.50
2019-03-28T06:45:08.368Z,98.30
2019-03-28T06:47:37.664Z,98.20
2019-03-28T06:50:07.447Z,98.30
2019-03-28T06:52:36.690Z,98.10
2019-03-28T06:55:06.311Z,98.10
2019-03-28T06:57:35.613Z,98.00
2019-03-28T07:00:10.919Z,97.70
2019-03-28T07:02:40.255Z,97.90
2019-03-28T07:05:10.096Z,97.10
2019-03-28T07:07:39.343Z,96.60
2019-03-28T07:10:10.700Z,96.30
2019-03-28T07:12:40.405Z,96.20
2019-03-28T07:15:11.844Z,96.00
2019-03-28T07:17:46.325Z,95.60
2019-03-28T07:20:18.425Z,95.10
2019-03-28T07:22:52.580Z,94.90
2019-03-28T07:25:22.030Z,94.60
2019-03-28T07:27:51.241Z,94.50
2019-03-28T07:30:20.695Z,94.10
2019-03-28T07:32:49.936Z,93.80
2019-03-28T07:35:19.162Z,93.30
2019-03-28T07:37:48.407Z,93.00
2019-03-28T07:40:17.868Z,92.40
2019-03-28T07:42:47.131Z,92.10
2019-03-28T07:45:16.732Z,91.70
2019-03-28T07:47:45.989Z,91.50
2019-03-28T07:50:15.652Z,90.90
2019-03-28T07:52:45.016Z,90.20
2019-03-28T07:55:16.438Z,90.10
2019-03-28T07:57:45.441Z,89.50
2019-03-28T08:00:15.217Z,88.80
2019-03-28T08:02:44.468Z,87.50
2019-03-28T08:05:14.021Z,84.80
2019-03-28T08:07:45.327Z,83.50
2019-03-28T08:10:14.639Z,81.90
2019-03-28T08:12:43.885Z,80.20
2019-03-28T08:15:13.552Z,79.00
2019-03-28T08:17:42.778Z,79.00
2019-03-28T08:20:12.853Z,77.90
2019-03-28T08:22:42.106Z,76.30
2019-03-28T08:25:12.275Z,75.80
2019-03-28T08:27:42.392Z,75.20
2019-03-28T08:30:18.765Z,73.50
2019-03-28T08:32:43.248Z,73.40
2019-03-28T08:35:13.051Z,72.70
2019-03-28T08:37:42.750Z,73.10
2019-03-28T08:40:15.045Z,73.20
2019-03-28T08:42:44.262Z,73.70
2019-03-28T08:45:13.612Z,71.60
2019-03-28T08:47:42.819Z,71.10
2019-03-28T08:50:12.112Z,70.90
2019-03-28T08:52:41.341Z,71.40
2019-03-28T08:55:11.000Z,71.50
2019-03-28T08:57:40.426Z,70.30
2019-03-28T09:00:11.274Z,69.50
2019-03-28T09:02:40.494Z,69.70
2019-03-28T09:05:09.808Z,69.80
2019-03-28T09:07:39.118Z,71.00
2019-03-28T09:10:08.574Z,71.50
2019-03-28T09:12:38.056Z,70.80
2019-03-28T09:15:08.622Z,69.30
2019-03-28T09:17:37.882Z,69.40
2019-03-28T09:20:07.868Z,69.70
2019-03-28T09:22:38.945Z,68.60
2019-03-28T09:25:08.476Z,69.60
2019-03-28T09:27:38.327Z,69.40
2019-03-28T09:30:09.347Z,69.70
2019-03-28T09:32:38.949Z,69.90
2019-03-28T09:35:10.223Z,70.30
2019-03-28T09:37:39.440Z,70.40
2019-03-28T09:40:08.962Z,70.40
2019-03-28T09:42:38.198Z,70.50
2019-03-28T09:45:08.086Z,70.00
2019-03-28T09:47:37.326Z,69.80
2019-03-28T09:50:07.309Z,69.70
2019-03-28T09:52:36.533Z,69.70
2019-03-28T09:55:06.826Z,69.70
2019-03-28T09:57:36.069Z,69.80
2019-03-28T10:00:10.663Z,69.90
2019-03-28T10:02:39.994Z,70.80
2019-03-28T10:05:09.856Z,71.10
2019-03-28T10:07:39.112Z,71.10
2019-03-28T10:10:09.372Z,71.10
2019-03-28T10:12:38.700Z,70.80
2019-03-28T10:15:09.400Z,71.40
2019-03-28T10:17:38.692Z,71.00
2019-03-28T10:20:09.001Z,70.90
2019-03-28T10:22:38.297Z,70.50
2019-03-28T10:25:08.185Z,70.60
2019-03-28T10:27:37.781Z,70.10
2019-03-28T10:30:09.572Z,70.10
2019-03-28T10:32:38.880Z,69.50
2019-03-28T10:35:08.168Z,69.20
2019-03-28T10:37:37.420Z,69.30
2019-03-28T10:40:07.907Z,69.10
2019-03-28T10:42:37.167Z,69.20
2019-03-28T10:45:07.105Z,69.80
2019-03-28T10:47:36.334Z,70.00
2019-03-28T10:50:06.805Z,70.00
2019-03-28T10:52:36.030Z,69.60
2019-03-28T10:55:05.599Z,70.20
2019-03-28T10:57:34.827Z,69.20
2019-03-28T11:00:07.366Z,68.70
2019-03-28T11:02:36.618Z,68.70
2019-03-28T11:05:06.392Z,68.40
2019-03-28T11:07:35.638Z,69.20
2019-03-28T11:10:08.462Z,69.10
2019-03-28T11:12:37.686Z,69.30
2019-03-28T11:15:07.257Z,68.50
2019-03-28T11:17:36.506Z,68.20
2019-03-28T11:20:06.371Z,68.10
2019-03-28T11:22:35.654Z,67.90
2019-03-28T11:25:06.592Z,68.00
2019-03-28T11:27:35.859Z,68.10
2019-03-28T11:30:07.883Z,68.30
2019-03-28T11:32:37.114Z,67.70
2019-03-28T11:35:07.880Z,66.90
2019-03-28T11:37:37.586Z,67.00
2019-03-28T11:40:10.532Z,66.80
2019-03-28T11:42:39.813Z,66.50
2019-03-28T11:45:09.912Z,65.90
2019-03-28T11:47:39.358Z,66.70
2019-03-28T11:50:09.653Z,66.60
2019-03-28T11:52:38.946Z,67.30
2019-03-28T11:55:08.849Z,65.70
2019-03-28T11:57:38.157Z,66.50
2019-03-28T12:00:10.777Z,65.20
2019-03-28T12:02:40.084Z,65.20
2019-03-28T12:05:09.574Z,64.60
2019-03-28T12:07:38.829Z,64.20
2019-03-28T12:10:11.146Z,64.70
2019-03-28T12:12:40.403Z,64.30
2019-03-28T12:15:10.371Z,63.50
2019-03-28T12:17:39.625Z,63.50
2019-03-28T12:20:10.003Z,64.30
2019-03-28T12:22:39.438Z,64.10
2019-03-28T12:25:09.106Z,64.80
2019-03-28T12:27:38.415Z,65.10
2019-03-28T12:30:10.869Z,64.80
2019-03-28T12:32:40.104Z,64.60
2019-03-28T12:35:09.523Z,64.10
2019-03-28T12:37:38.759Z,64.10
2019-03-28T12:40:08.959Z,63.90
2019-03-28T12:42:38.283Z,64.80
2019-03-28T12:45:12.290Z,65.10
2019-03-28T12:47:43.116Z,65.10
2019-03-28T12:50:13.793Z,65.20
2019-03-28T12:52:43.014Z,65.40
2019-03-28T12:55:12.677Z,65.80
2019-03-28T12:57:53.794Z,66.40
2019-03-28T13:00:26.183Z,67.30
2019-03-28T13:02:55.419Z,68.00
2019-03-28T13:05:24.728Z,68.30
2019-03-28T13:07:53.954Z,68.30
2019-03-28T13:10:23.203Z,68.60
2019-03-28T13:12:52.453Z,68.90
2019-03-28T13:15:21.869Z,68.60
2019-03-28T13:17:51.153Z,68.80
2019-03-28T13:20:22.209Z,68.40
2019-03-28T13:22:52.115Z,68.40
2019-03-28T13:25:21.463Z,68.50
2019-03-28T13:27:50.713Z,68.50
2019-03-28T13:30:20.201Z,68.20
2019-03-28T13:32:49.453Z,67.90
2019-03-28T13:35:18.703Z,66.50
2019-03-28T13:37:47.917Z,65.40
2019-03-28T13:40:17.201Z,64.40
2019-03-28T13:42:46.449Z,63.20
2019-03-28T13:45:17.423Z,62.30
2019-03-28T13:47:46.664Z,63.20
2019-03-28T13:50:16.461Z,63.30
2019-03-28T13:52:45.708Z,63.30
2019-03-28T13:55:15.024Z,63.40
2019-03-28T13:57:44.272Z,63.30
2019-03-28T14:00:15.088Z,63.50
2019-03-28T14:02:54.861Z,63.80
2019-03-28T14:05:15.438Z,64.60
2019-03-28T14:07:44.699Z,65.50
2019-03-28T14:10:14.257Z,66.60
2019-03-28T14:12:43.574Z,67.00
2019-03-28T14:15:13.092Z,67.20
2019-03-28T14:17:42.339Z,67.70
2019-03-28T14:20:11.897Z,68.20
2019-03-28T14:22:41.163Z,68.60
2019-03-28T14:25:10.610Z,68.90
2019-03-28T14:27:39.841Z,69.00
2019-03-28T14:30:11.486Z,68.90
2019-03-28T14:32:52.692Z,68.40
2019-03-28T14:35:12.151Z,68.40
2019-03-28T14:37:41.442Z,68.20
2019-03-28T14:40:11.148Z,67.80
2019-03-28T14:42:40.951Z,67.10
2019-03-28T14:45:10.745Z,67.60
2019-03-28T14:47:40.022Z,67.60
2019-03-28T14:50:10.582Z,68.10
2019-03-28T14:52:39.861Z,68.30
2019-03-28T14:55:10.110Z,68.80
2019-03-28T14:57:40.289Z,68.90
2019-03-28T15:00:21.293Z,69.10
2019-03-28T15:02:50.594Z,69.10
2019-03-28T15:05:19.822Z,69.20
2019-03-28T15:07:49.083Z,69.40
2019-03-28T15:10:18.369Z,69.50
2019-03-28T15:12:47.637Z,69.70
2019-03-28T15:15:16.941Z,70.20
2019-03-28T15:17:46.257Z,70.30
2019-03-28T15:20:15.507Z,70.60
2019-03-28T15:22:44.760Z,70.90
2019-03-28T15:25:14.088Z,71.10
2019-03-28T15:27:43.312Z,71.50
2019-03-28T15:30:12.904Z,71.40
2019-03-28T15:32:42.126Z,71.40
2019-03-28T15:35:11.369Z,71.50
2019-03-28T15:37:40.599Z,71.50
2019-03-28T15:40:10.272Z,71.70
2019-03-28T15:42:39.538Z,72.10
2019-03-28T15:45:09.331Z,72.30
2019-03-28T15:47:38.553Z,72.90
2019-03-28T15:50:08.046Z,72.90
2019-03-28T15:52:37.280Z,73.30
2019-03-28T15:55:07.535Z,73.40
2019-03-28T15:57:36.909Z,73.60
2019-03-28T16:00:08.833Z,73.90
2019-03-28T16:02:38.061Z,74.30
2019-03-28T16:05:07.287Z,74.40
2019-03-28T16:07:36.537Z,74.70
2019-03-28T16:10:07.694Z,75.00
2019-03-28T16:12:37.182Z,75.40
2019-03-28T16:15:08.355Z,75.70
2019-03-28T16:17:37.647Z,75.70
2019-03-28T16:20:07.165Z,75.60
2019-03-28T16:22:36.422Z,75.50
2019-03-28T16:25:07.061Z,75.60
2019-03-28T16:27:36.322Z,75.80
2019-03-28T16:30:08.644Z,76.00
2019-03-28T16:32:37.874Z,76.40
2019-03-28T16:35:07.262Z,76.60
2019-03-28T16:37:36.496Z,76.80
2019-03-28T16:40:06.358Z,76.60
2019-03-28T16:42:35.619Z,76.90
2019-03-28T16:45:07.195Z,77.70
2019-03-28T16:47:36.437Z,77.30
2019-03-28T16:50:07.226Z,78.30
2019-03-28T16:52:36.552Z,77.90
2019-03-28T16:55:06.473Z,78.40
2019-03-28T16:57:35.763Z,78.30
2019-03-28T17:00:13.369Z,78.70
2019-03-28T17:02:42.695Z,78.60
2019-03-28T17:05:12.711Z,78.80
2019-03-28T17:07:44.485Z,79.20
2019-03-28T17:10:16.877Z,79.20
2019-03-28T17:12:46.103Z,79.50
2019-03-28T17:15:15.433Z,79.90
2019-03-28T17:17:44.661Z,80.00
2019-03-28T17:20:14.972Z,80.20
2019-03-28T17:22:44.580Z,80.50
2019-03-28T17:25:25.642Z,80.90
2019-03-28T17:27:54.873Z,81.20
2019-03-28T17:30:24.145Z,81.30
2019-03-28T17:32:53.485Z,81.40
2019-03-28T17:35:22.791Z,81.40
2019-03-28T17:37:52.065Z,81.60
2019-03-28T17:40:21.305Z,82.00
2019-03-28T17:42:50.557Z,82.20
2019-03-28T17:45:19.802Z,82.80
2019-03-28T17:47:49.012Z,83.10
2019-03-28T17:50:18.321Z,83.60
2019-03-28T17:52:47.566Z,84.20
2019-03-28T17:55:19.619Z,84.60
2019-03-28T17:57:47.730Z,84.90
2019-03-28T18:00:17.514Z,85.30
2019-03-28T18:02:46.748Z,85.70
2019-03-28T18:05:16.152Z,86.00
2019-03-28T18:07:45.801Z,86.40
2019-03-28T18:10:15.422Z,86.80
2019-03-28T18:12:44.968Z,86.60
2019-03-28T18:15:15.549Z,86.60
2019-03-28T18:17:44.940Z,86.80
2019-03-28T18:20:14.522Z,87.10
2019-03-28T18:22:43.768Z,87.30
2019-03-28T18:25:13.263Z,87.30
2019-03-28T18:27:43.708Z,87.60
2019-03-28T18:30:13.398Z,87.80
2019-03-28T18:32:42.634Z,87.90
2019-03-28T18:35:12.140Z,88.10
2019-03-28T18:37:41.507Z,88.40
2019-03-28T18:40:10.995Z,88.50
2019-03-28T18:42:40.256Z,88.60
2019-03-28T18:45:12.716Z,88.90
2019-03-28T18:47:41.495Z,89.10
2019-03-28T18:50:11.608Z,89.20
2019-03-28T18:52:40.876Z,89.20
2019-03-28T18:55:22.648Z,89.60
2019-03-28T18:57:51.891Z,89.90
2019-03-28T19:00:22.654Z,90.00
2019-03-28T19:02:51.902Z,90.20
2019-03-28T19:05:21.141Z,90.50
2019-03-28T19:07:50.400Z,90.20
2019-03-28T19:10:19.724Z,90.20
2019-03-28T19:12:48.954Z,90.30
2019-03-28T19:15:18.337Z,90.30
2019-03-28T19:17:47.591Z,90.50
2019-03-28T19:20:17.139Z,90.60
2019-03-28T19:22:46.413Z,90.70
2019-03-28T19:25:15.985Z,90.70
2019-03-28T19:27:45.308Z,90.80
2019-03-28T19:30:15.347Z,91.00
2019-03-28T19:32:48.911Z,91.10
2019-03-28T19:35:32.234Z,91.30
2019-03-28T19:37:50.609Z,91.40
2019-03-28T19:40:19.999Z,91.40
2019-03-28T19:42:49.254Z,91.70
2019-03-28T19:45:21.609Z,91.80
2019-03-28T19:47:50.833Z,91.90
2019-03-28T19:50:29.025Z,92.00
2019-03-28T19:52:56.891Z,92.20
2019-03-28T19:55:26.265Z,92.40
2019-03-28T19:57:55.478Z,92.50
2019-03-28T20:00:24.752Z,92.70
2019-03-28T20:02:54.009Z,92.90
2019-03-28T20:05:23.243Z,93.30
2019-03-28T20:07:52.553Z,93.50
2019-03-28T20:10:21.883Z,93.60
2019-03-28T20:12:51.387Z,93.80
2019-03-28T20:15:20.909Z,94.10
2019-03-28T20:17:50.209Z,94.20
2019-03-28T20:20:19.579Z,94.50
2019-03-28T20:22:48.827Z,94.90
2019-03-28T20:25:18.105Z,95.30
2019-03-28T20:27:47.333Z,96.40
2019-03-28T20:30:17.173Z,96.90
2019-03-28T20:32:46.493Z,97.20
2019-03-28T20:35:16.905Z,97.50
2019-03-28T20:37:46.163Z,98.00
2019-03-28T20:40:15.949Z,98.10
2019-03-28T20:42:45.205Z,98.70
2019-03-28T20:45:15.075Z,98.60
2019-03-28T20:47:44.579Z,98.80
2019-03-28T20:50:14.959Z,99.10
2019-03-28T20:52:44.776Z,99.20
2019-03-28T20:55:14.777Z,99.50
2019-03-28T20:57:43.986Z,99.60
2019-03-28T21:00:13.884Z,99.90
2019-03-28T21:02:43.106Z,99.90
2019-03-28T21:05:14.536Z,99.90
2019-03-28T21:07:43.356Z,99.90
2019-03-28T21:10:15.657Z,99.90
2019-03-28T21:12:44.895Z,99.90
2019-03-28T21:15:14.110Z,99.90
2019-03-28T21:17:43.343Z,99.90
2019-03-28T21:20:12.725Z,99.90
2019-03-28T21:22:41.961Z,99.90
2019-03-28T21:25:11.220Z,99.90
2019-03-28T21:27:40.521Z,99.90
2019-03-28T21:30:10.106Z,99.90
2019-03-28T21:32:39.346Z,99.90
2019-03-28T21:35:08.827Z,99.90
2019-03-28T21:37:38.105Z,99.90
2019-03-28T21:40:07.676Z,99.90
2019-03-28T21:42:36.925Z,99.90
2019-03-28T21:45:06.746Z,99.90
2019-03-28T21:47:36.000Z,99.90
2019-03-28T21:50:07.063Z,99.90
2019-03-28T21:52:36.367Z,99.90
2019-03-28T21:55:07.141Z,99.90
2019-03-28T21:57:37.293Z,99.90
2019-03-28T22:00:07.820Z,99.90
2019-03-28T22:02:37.077Z,99.90
2019-03-28T22:05:06.890Z,99.90
2019-03-28T22:07:36.200Z,99.90
2019-03-28T22:10:09.176Z,99.90
2019-03-28T22:12:38.543Z,99.90
2019-03-28T22:15:09.303Z,99.90
2019-03-28T22:17:38.546Z,99.90
2019-03-28T22:20:08.828Z,99.90
2019-03-28T22:22:38.064Z,99.90
2019-03-28T22:25:07.593Z,99.90
2019-03-28T22:27:36.847Z,99.90
2019-03-28T22:30:07.219Z,99.90
2019-03-28T22:32:36.513Z,99.90
2019-03-28T22:35:08.898Z,99.90
2019-03-28T22:37:38.130Z,99.90
2019-03-28T22:40:12.007Z,99.90
2019-03-28T22:42:40.939Z,99.90
2019-03-28T22:45:12.055Z,99.90
2019-03-28T22:47:41.572Z,99.90
2019-03-28T22:50:11.257Z,99.90
2019-03-28T22:52:40.476Z,99.90
2019-03-28T22:55:10.147Z,99.90
2019-03-28T22:57:39.383Z,99.90
2019-03-28T23:00:12.199Z,99.90
2019-03-28T23:02:41.705Z,99.90
2019-03-28T23:05:11.684Z,99.90
2019-03-28T23:07:41.192Z,99.90
2019-03-28T23:10:11.925Z,99.90
2019-03-28T23:12:41.220Z,99.90
2019-03-28T23:15:11.597Z,99.90
2019-03-28T23:17:40.840Z,99.90
2019-03-28T23:20:10.435Z,99.90
2019-03-28T23:22:39.675Z,99.90
2019-03-28T23:25:09.043Z,99.90
2019-03-28T23:27:38.279Z,99.90
2019-03-28T23:30:09.203Z,99.90
2019-03-28T23:32:38.942Z,99.90
2019-03-28T23:35:08.921Z,99.90
2019-03-28T23:37:38.211Z,99.90
2019-03-28T23:40:08.259Z,99.90
2019-03-28T23:42:37.483Z,99.90
2019-03-28T23:45:11.450Z,99.90
2019-03-28T23:47:42.213Z,99.90
2019-03-28T23:50:11.705Z,99.90
2019-03-28T23:52:40.930Z,99.90
2019-03-28T23:55:10.495Z,99.90
2019-03-28T23:57:39.731Z,99.90
